New Iberia, Louisiana
Current Conditions -  °F | °C
As of 5:53 PM on Friday 21 Nov 2014 (Local Time) from KARA Reporting Station
Clear Clear  
Wind Chill: 62°   Ceiling: Unl
Heat Index: 62°   Visibility: 10mi
Dew Point: 48°   Wind: 7mph
Humidity: 60%   Direction: 140°SE
Pressure: 30.23"   Gusts: NA
Location:  30.01°N, 91.82°W
Report Text: KARA 212353Z AUTO 14006KT 10SM CLR 17/09 A3023 RMK AO2 SLP236 T01670089 10233 20167 51012
Loading
Personal Weather Stations






























Interactive Weather Map New forecast layout! Learn more

10-Day Weather Forecast

Advertisements
Track Severe Weather on mobile